GLO1370 SBSP-SBSR
Flight info
| Callsign | GLO1370 |
|---|---|
| Flight time | 0h 47m |
| Altitude | 30000 |
| Route | GERTU UL201 UPONA |
| Aircraft | B738/M-SDE2E3FGHIRWXY/LB1 |
Departure
| Time | 2026-05-06 16:09 |
|---|---|
| Airport | Congonhas–Deputado Freitas Nobre Airport (SBSP) |
Arrival
| Time | 2026-05-06 16:57 |
|---|---|
| Airport | Prof. Eribelto Manoel Reino State Airport (SBSR) |
| Time | Latitude | Longitude | Altitude | Speed | Heading |
|---|---|---|---|---|---|
| 2026-05-06 16:03 | -23.62619 | -46.65836 | 2616 ft | 0 kts | 319° |
| 2026-05-06 16:05 | -23.62618 | -46.65837 | 2616 ft | 2 kts | 320° |
| 2026-05-06 16:05 | -23.62570 | -46.65840 | 2614 ft | 13 kts | 1° |
| 2026-05-06 16:06 | -23.62460 | -46.65897 | 2610 ft | 22 kts | 327° |
| 2026-05-06 16:06 | -23.62326 | -46.65990 | 2606 ft | 21 kts | 327° |
| 2026-05-06 16:06 | -23.62208 | -46.66063 | 2601 ft | 18 kts | 330° |
| 2026-05-06 16:06 | -23.62133 | -46.66114 | 2592 ft | 2 kts | 328° |
| 2026-05-06 16:07 | -23.62112 | -46.66128 | 2593 ft | 8 kts | 332° |
| 2026-05-06 16:08 | -23.62046 | -46.66105 | 2590 ft | 12 kts | 71° |
| 2026-05-06 16:08 | -23.62090 | -46.66045 | 2597 ft | 10 kts | 147° |
| 2026-05-06 16:08 | -23.62240 | -46.65942 | 2604 ft | 62 kts | 147° |
| 2026-05-06 16:08 | -23.62846 | -46.65522 | 2625 ft | 140 kts | 148° |
| 2026-05-06 16:09 | -23.63796 | -46.64826 | 2958 ft | 180 kts | 145° |
| 2026-05-06 16:09 | -23.64873 | -46.64030 | 3905 ft | 188 kts | 145° |
| 2026-05-06 16:09 | -23.66112 | -46.63369 | 4556 ft | 214 kts | 168° |
| 2026-05-06 16:09 | -23.67686 | -46.63567 | 4805 ft | 243 kts | 196° |
| 2026-05-06 16:10 | -23.69353 | -46.64044 | 5233 ft | 259 kts | 191° |
| 2026-05-06 16:10 | -23.71191 | -46.64394 | 5663 ft | 277 kts | 187° |
| 2026-05-06 16:10 | -23.73129 | -46.64670 | 6496 ft | 280 kts | 186° |
| 2026-05-06 16:10 | -23.75045 | -46.65136 | 7268 ft | 286 kts | 204° |
| 2026-05-06 16:11 | -23.76598 | -46.66445 | 7652 ft | 289 kts | 232° |
| 2026-05-06 16:11 | -23.77436 | -46.68442 | 7736 ft | 292 kts | 262° |
| 2026-05-06 16:11 | -23.77466 | -46.70637 | 7748 ft | 291 kts | 268° |
| 2026-05-06 16:11 | -23.78041 | -46.72723 | 7763 ft | 289 kts | 239° |
| 2026-05-06 16:12 | -23.79155 | -46.74562 | 7768 ft | 290 kts | 234° |
| 2026-05-06 16:12 | -23.80373 | -46.76355 | 8147 ft | 297 kts | 233° |
| 2026-05-06 16:12 | -23.81606 | -46.78184 | 9068 ft | 298 kts | 235° |
| 2026-05-06 16:12 | -23.82788 | -46.80023 | 10013 ft | 299 kts | 236° |
| 2026-05-06 16:13 | -23.83976 | -46.81934 | 10757 ft | 309 kts | 236° |
| 2026-05-06 16:13 | -23.85219 | -46.83968 | 10978 ft | 335 kts | 237° |
| 2026-05-06 16:13 | -23.86315 | -46.86248 | 11446 ft | 348 kts | 254° |
| 2026-05-06 16:13 | -23.86534 | -46.88883 | 12229 ft | 350 kts | 277° |
| 2026-05-06 16:14 | -23.85814 | -46.91430 | 12935 ft | 355 kts | 298° |
| 2026-05-06 16:14 | -23.84589 | -46.93765 | 13596 ft | 360 kts | 301° |
| 2026-05-06 16:14 | -23.83260 | -46.96135 | 14221 ft | 366 kts | 301° |
| 2026-05-06 16:14 | -23.81923 | -46.98503 | 14882 ft | 369 kts | 301° |
| 2026-05-06 16:15 | -23.80589 | -47.00893 | 15556 ft | 371 kts | 300° |
| 2026-05-06 16:15 | -23.79264 | -47.03309 | 16217 ft | 374 kts | 300° |
| 2026-05-06 16:15 | -23.77930 | -47.05762 | 16871 ft | 377 kts | 300° |
| 2026-05-06 16:15 | -23.76572 | -47.08263 | 17467 ft | 383 kts | 299° |
| 2026-05-06 16:16 | -23.75140 | -47.10716 | 18080 ft | 388 kts | 309° |
| 2026-05-06 16:16 | -23.73098 | -47.12625 | 18634 ft | 394 kts | 329° |
| 2026-05-06 16:16 | -23.70520 | -47.13716 | 19199 ft | 398 kts | 347° |
| 2026-05-06 16:16 | -23.67804 | -47.14294 | 19796 ft | 400 kts | 349° |
| 2026-05-06 16:17 | -23.65064 | -47.14827 | 20320 ft | 404 kts | 349° |
| 2026-05-06 16:17 | -23.62276 | -47.15399 | 20866 ft | 407 kts | 348° |
| 2026-05-06 16:17 | -23.59508 | -47.15995 | 21419 ft | 410 kts | 348° |
| 2026-05-06 16:17 | -23.56686 | -47.16615 | 21975 ft | 413 kts | 347° |
| 2026-05-06 16:18 | -23.53851 | -47.17238 | 22501 ft | 416 kts | 347° |
| 2026-05-06 16:18 | -23.51031 | -47.17857 | 23036 ft | 419 kts | 347° |
| 2026-05-06 16:18 | -23.48157 | -47.18487 | 23529 ft | 422 kts | 347° |
| 2026-05-06 16:18 | -23.45256 | -47.19124 | 23957 ft | 426 kts | 347° |
| 2026-05-06 16:19 | -23.42348 | -47.19761 | 24349 ft | 430 kts | 347° |
| 2026-05-06 16:19 | -23.39432 | -47.20400 | 24721 ft | 434 kts | 347° |
| 2026-05-06 16:19 | -23.36443 | -47.21056 | 25092 ft | 438 kts | 347° |
| 2026-05-06 16:19 | -23.33430 | -47.21716 | 25493 ft | 441 kts | 346° |
| 2026-05-06 16:20 | -23.30412 | -47.22376 | 25881 ft | 445 kts | 346° |
| 2026-05-06 16:20 | -23.27383 | -47.23037 | 26292 ft | 448 kts | 346° |
| 2026-05-06 16:20 | -23.24424 | -47.23682 | 26654 ft | 451 kts | 346° |
| 2026-05-06 16:20 | -23.21320 | -47.24359 | 27007 ft | 455 kts | 346° |
| 2026-05-06 16:21 | -23.18191 | -47.25041 | 27376 ft | 458 kts | 346° |
| 2026-05-06 16:21 | -23.15094 | -47.25714 | 27842 ft | 458 kts | 346° |
| 2026-05-06 16:21 | -23.11960 | -47.26394 | 28373 ft | 457 kts | 346° |
| 2026-05-06 16:21 | -23.08859 | -47.27066 | 28849 ft | 457 kts | 346° |
| 2026-05-06 16:22 | -23.05720 | -47.27747 | 29293 ft | 458 kts | 345° |
| 2026-05-06 16:22 | -23.02597 | -47.28425 | 29755 ft | 459 kts | 345° |
| 2026-05-06 16:22 | -22.99479 | -47.29102 | 30189 ft | 460 kts | 345° |
| 2026-05-06 16:22 | -22.96317 | -47.29789 | 30175 ft | 463 kts | 345° |
| 2026-05-06 16:23 | -22.90032 | -47.31153 | 30173 ft | 458 kts | 345° |
| 2026-05-06 16:23 | -22.83761 | -47.32515 | 30180 ft | 459 kts | 345° |
| 2026-05-06 16:24 | -22.77527 | -47.33868 | 30158 ft | 459 kts | 345° |
| 2026-05-06 16:24 | -22.71236 | -47.35232 | 30139 ft | 460 kts | 345° |
| 2026-05-06 16:25 | -22.65305 | -47.37459 | 30146 ft | 446 kts | 320° |
| 2026-05-06 16:25 | -22.60424 | -47.41527 | 30133 ft | 443 kts | 316° |
| 2026-05-06 16:26 | -22.55599 | -47.45676 | 30139 ft | 444 kts | 317° |
| 2026-05-06 16:26 | -22.50729 | -47.49765 | 30128 ft | 444 kts | 317° |
| 2026-05-06 16:27 | -22.45833 | -47.53837 | 30131 ft | 443 kts | 317° |
| 2026-05-06 16:27 | -22.41074 | -47.58045 | 30128 ft | 438 kts | 311° |
| 2026-05-06 16:28 | -22.37565 | -47.61949 | 30142 ft | 435 kts | 308° |
| 2026-05-06 16:28 | -22.33456 | -47.66731 | 30135 ft | 435 kts | 308° |
| 2026-05-06 16:29 | -22.28593 | -47.72268 | 30137 ft | 435 kts | 309° |
| 2026-05-06 16:29 | -22.24385 | -47.76976 | 30131 ft | 435 kts | 309° |
| 2026-05-06 16:30 | -22.21585 | -47.80094 | 30136 ft | 435 kts | 309° |
| 2026-05-06 16:30 | -22.16691 | -47.85538 | 30136 ft | 433 kts | 309° |
| 2026-05-06 16:31 | -22.12487 | -47.90216 | 30137 ft | 433 kts | 309° |
| 2026-05-06 16:31 | -22.08318 | -47.94850 | 30135 ft | 433 kts | 309° |
| 2026-05-06 16:32 | -22.04104 | -47.99531 | 30124 ft | 433 kts | 309° |
| 2026-05-06 16:32 | -21.99970 | -48.04114 | 30120 ft | 421 kts | 309° |
| 2026-05-06 16:33 | -21.95891 | -48.08638 | 30133 ft | 419 kts | 309° |
| 2026-05-06 16:33 | -21.93863 | -48.10889 | 29998 ft | 420 kts | 309° |
| 2026-05-06 16:34 | -21.89836 | -48.15351 | 29260 ft | 412 kts | 309° |
| 2026-05-06 16:34 | -21.87840 | -48.17558 | 28856 ft | 408 kts | 309° |
| 2026-05-06 16:34 | -21.85861 | -48.19746 | 28421 ft | 405 kts | 309° |
| 2026-05-06 16:34 | -21.83916 | -48.21889 | 27989 ft | 403 kts | 310° |
| 2026-05-06 16:35 | -21.81974 | -48.24027 | 27583 ft | 400 kts | 310° |
| 2026-05-06 16:35 | -21.80028 | -48.26170 | 27181 ft | 397 kts | 310° |
| 2026-05-06 16:35 | -21.78094 | -48.28300 | 26767 ft | 395 kts | 310° |
| 2026-05-06 16:35 | -21.76195 | -48.30392 | 26370 ft | 393 kts | 310° |
| 2026-05-06 16:36 | -21.74283 | -48.32499 | 25971 ft | 391 kts | 310° |
| 2026-05-06 16:36 | -21.72404 | -48.34569 | 25578 ft | 389 kts | 310° |
| 2026-05-06 16:36 | -21.70497 | -48.36670 | 25174 ft | 387 kts | 311° |
| 2026-05-06 16:36 | -21.68637 | -48.38717 | 24771 ft | 386 kts | 311° |
| 2026-05-06 16:37 | -21.66750 | -48.40794 | 24373 ft | 385 kts | 311° |
| 2026-05-06 16:37 | -21.64890 | -48.42840 | 23967 ft | 384 kts | 311° |
| 2026-05-06 16:37 | -21.63032 | -48.44884 | 23540 ft | 383 kts | 311° |
| 2026-05-06 16:37 | -21.61166 | -48.46935 | 23101 ft | 381 kts | 311° |
| 2026-05-06 16:38 | -21.59305 | -48.48980 | 22685 ft | 379 kts | 311° |
| 2026-05-06 16:38 | -21.57480 | -48.50984 | 22288 ft | 377 kts | 312° |
| 2026-05-06 16:38 | -21.55640 | -48.53002 | 21887 ft | 375 kts | 312° |
| 2026-05-06 16:38 | -21.53831 | -48.54989 | 21500 ft | 373 kts | 312° |
| 2026-05-06 16:39 | -21.52020 | -48.56976 | 21106 ft | 370 kts | 312° |
| 2026-05-06 16:39 | -21.50237 | -48.58931 | 20732 ft | 368 kts | 312° |
| 2026-05-06 16:39 | -21.48439 | -48.60902 | 20349 ft | 367 kts | 312° |
| 2026-05-06 16:39 | -21.46665 | -48.62845 | 19968 ft | 366 kts | 313° |
| 2026-05-06 16:40 | -21.44879 | -48.64801 | 19585 ft | 364 kts | 313° |
| 2026-05-06 16:40 | -21.43115 | -48.66734 | 19184 ft | 364 kts | 313° |
| 2026-05-06 16:40 | -21.41344 | -48.68674 | 18810 ft | 363 kts | 313° |
| 2026-05-06 16:40 | -21.39586 | -48.70598 | 18418 ft | 362 kts | 313° |
| 2026-05-06 16:41 | -21.37832 | -48.72517 | 17989 ft | 362 kts | 313° |
| 2026-05-06 16:41 | -21.36062 | -48.74453 | 17576 ft | 359 kts | 313° |
| 2026-05-06 16:41 | -21.34325 | -48.76352 | 17191 ft | 357 kts | 314° |
| 2026-05-06 16:41 | -21.32580 | -48.78259 | 16821 ft | 355 kts | 314° |
| 2026-05-06 16:42 | -21.30868 | -48.80130 | 16438 ft | 354 kts | 314° |
| 2026-05-06 16:42 | -21.29131 | -48.82028 | 16059 ft | 352 kts | 314° |
| 2026-05-06 16:42 | -21.27436 | -48.83881 | 15689 ft | 351 kts | 314° |
| 2026-05-06 16:42 | -21.25722 | -48.85753 | 15287 ft | 351 kts | 314° |
| 2026-05-06 16:43 | -21.24024 | -48.87603 | 14917 ft | 349 kts | 314° |
| 2026-05-06 16:43 | -21.22315 | -48.89472 | 14514 ft | 349 kts | 313° |
| 2026-05-06 16:43 | -21.20878 | -48.91560 | 14111 ft | 349 kts | 298° |
| 2026-05-06 16:43 | -21.19932 | -48.93959 | 13609 ft | 351 kts | 289° |
| 2026-05-06 16:44 | -21.19112 | -48.96435 | 13171 ft | 350 kts | 289° |
| 2026-05-06 16:44 | -21.18318 | -48.98907 | 12774 ft | 348 kts | 289° |
| 2026-05-06 16:44 | -21.17538 | -49.01331 | 12402 ft | 346 kts | 289° |
| 2026-05-06 16:44 | -21.16744 | -49.03775 | 12016 ft | 344 kts | 289° |
| 2026-05-06 16:45 | -21.15961 | -49.06163 | 11652 ft | 341 kts | 289° |
| 2026-05-06 16:45 | -21.15169 | -49.08561 | 11238 ft | 341 kts | 290° |
| 2026-05-06 16:45 | -21.14379 | -49.10946 | 10742 ft | 334 kts | 290° |
| 2026-05-06 16:45 | -21.13608 | -49.13263 | 10327 ft | 325 kts | 290° |
| 2026-05-06 16:46 | -21.12872 | -49.15471 | 10166 ft | 310 kts | 290° |
| 2026-05-06 16:46 | -21.12161 | -49.17599 | 10019 ft | 298 kts | 291° |
| 2026-05-06 16:46 | -21.11474 | -49.19660 | 9827 ft | 287 kts | 291° |
| 2026-05-06 16:46 | -21.10804 | -49.21657 | 9527 ft | 281 kts | 291° |
| 2026-05-06 16:47 | -21.10159 | -49.23586 | 9257 ft | 274 kts | 291° |
| 2026-05-06 16:47 | -21.09520 | -49.25502 | 8989 ft | 269 kts | 291° |
| 2026-05-06 16:47 | -21.08900 | -49.27356 | 8728 ft | 263 kts | 291° |
| 2026-05-06 16:47 | -21.08292 | -49.29174 | 8468 ft | 258 kts | 291° |
| 2026-05-06 16:48 | -21.07691 | -49.30972 | 8208 ft | 253 kts | 291° |
| 2026-05-06 16:48 | -21.07101 | -49.32733 | 7930 ft | 248 kts | 291° |
| 2026-05-06 16:48 | -21.06523 | -49.34454 | 7704 ft | 245 kts | 291° |
| 2026-05-06 16:48 | -21.05954 | -49.36147 | 7478 ft | 243 kts | 291° |
| 2026-05-06 16:49 | -21.05378 | -49.37868 | 7236 ft | 246 kts | 291° |
| 2026-05-06 16:49 | -21.04802 | -49.39587 | 7012 ft | 247 kts | 291° |
| 2026-05-06 16:49 | -21.04215 | -49.41337 | 6751 ft | 250 kts | 291° |
| 2026-05-06 16:49 | -21.03630 | -49.43083 | 6515 ft | 251 kts | 291° |
| 2026-05-06 16:50 | -21.03037 | -49.44857 | 6253 ft | 254 kts | 292° |
| 2026-05-06 16:50 | -21.02432 | -49.46651 | 5966 ft | 255 kts | 290° |
| 2026-05-06 16:50 | -21.01833 | -49.48431 | 5751 ft | 256 kts | 292° |
| 2026-05-06 16:50 | -21.01234 | -49.50211 | 5612 ft | 250 kts | 292° |
| 2026-05-06 16:51 | -21.00485 | -49.51832 | 5501 ft | 238 kts | 314° |
| 2026-05-06 16:51 | -20.99232 | -49.52837 | 5440 ft | 218 kts | 339° |
| 2026-05-06 16:51 | -20.97851 | -49.53395 | 5336 ft | 205 kts | 346° |
| 2026-05-06 16:51 | -20.96539 | -49.53846 | 5235 ft | 190 kts | 345° |
| 2026-05-06 16:52 | -20.95295 | -49.54276 | 5177 ft | 191 kts | 346° |
| 2026-05-06 16:52 | -20.94027 | -49.54719 | 4955 ft | 193 kts | 345° |
| 2026-05-06 16:52 | -20.92752 | -49.54830 | 4757 ft | 179 kts | 21° |
| 2026-05-06 16:52 | -20.91768 | -49.54101 | 4603 ft | 169 kts | 49° |
| 2026-05-06 16:53 | -20.91022 | -49.53151 | 4422 ft | 165 kts | 53° |
| 2026-05-06 16:53 | -20.90314 | -49.52200 | 4233 ft | 166 kts | 53° |
| 2026-05-06 16:53 | -20.89589 | -49.51218 | 4074 ft | 168 kts | 52° |
| 2026-05-06 16:53 | -20.88876 | -49.50264 | 3800 ft | 158 kts | 53° |
| 2026-05-06 16:54 | -20.88202 | -49.49356 | 3598 ft | 153 kts | 54° |
| 2026-05-06 16:54 | -20.87546 | -49.48471 | 3334 ft | 150 kts | 52° |
| 2026-05-06 16:54 | -20.86919 | -49.47637 | 3147 ft | 140 kts | 53° |
| 2026-05-06 16:54 | -20.86317 | -49.46829 | 2910 ft | 134 kts | 53° |
| 2026-05-06 16:55 | -20.85737 | -49.46052 | 2716 ft | 139 kts | 53° |
| 2026-05-06 16:55 | -20.85130 | -49.45243 | 2615 ft | 136 kts | 53° |
| 2026-05-06 16:55 | -20.84542 | -49.44460 | 2558 ft | 138 kts | 55° |
| 2026-05-06 16:55 | -20.83933 | -49.43647 | 2443 ft | 138 kts | 54° |
| 2026-05-06 16:56 | -20.83327 | -49.42838 | 2229 ft | 145 kts | 51° |
| 2026-05-06 16:56 | -20.82688 | -49.41988 | 2007 ft | 145 kts | 51° |
| 2026-05-06 16:56 | -20.82062 | -49.41164 | 1770 ft | 136 kts | 53° |
| 2026-05-06 16:56 | -20.81583 | -49.40524 | 1756 ft | 70 kts | 51° |
| 2026-05-06 16:57 | -20.81416 | -49.40309 | 1761 ft | 10 kts | 25° |
| 2026-05-06 16:57 | -20.81363 | -49.40313 | 1763 ft | 7 kts | 352° |
| 2026-05-06 16:57 | -20.81320 | -49.40316 | 1762 ft | 6 kts | 6° |
| 2026-05-06 16:57 | -20.81283 | -49.40320 | 1763 ft | 5 kts | 329° |
| 2026-05-06 16:58 | -20.81254 | -49.40343 | 1760 ft | 5 kts | 322° |
| 2026-05-06 16:58 | -20.81239 | -49.40356 | 1760 ft | 0 kts | 322° |